sensor_id;sensor_type;location;lat;lon;timestamp;P1;durP1;ratioP1;P2;durP2;ratioP2
20794;SDS011;28087;-33.874;151.240;2022-12-04T00:01:58;4.45;;;1.00;;
20794;SDS011;28087;-33.874;151.240;2022-12-04T00:04:35;4.57;;;1.10;;
20794;SDS011;28087;-33.874;151.240;2022-12-04T00:07:12;7.93;;;1.35;;
20794;SDS011;28087;-33.874;151.240;2022-12-04T00:09:48;5.40;;;1.00;;
20794;SDS011;28087;-33.874;151.240;2022-12-04T00:12:27;5.90;;;1.08;;
20794;SDS011;28087;-33.874;151.240;2022-12-04T00:15:03;6.00;;;1.20;;
20794;SDS011;28087;-33.874;151.240;2022-12-04T00:17:55;9.30;;;1.30;;
20794;SDS011;28087;-33.874;151.240;2022-12-04T00:20:32;5.47;;;1.27;;
20794;SDS011;28087;-33.874;151.240;2022-12-04T00:23:11;5.47;;;1.10;;
20794;SDS011;28087;-33.874;151.240;2022-12-04T00:25:47;6.63;;;1.20;;
20794;SDS011;28087;-33.874;151.240;2022-12-04T00:28:25;7.10;;;1.10;;
20794;SDS011;28087;-33.874;151.240;2022-12-04T00:31:03;8.50;;;1.10;;
20794;SDS011;28087;-33.874;151.240;2022-12-04T00:33:40;7.93;;;1.60;;
20794;SDS011;28087;-33.874;151.240;2022-12-04T00:36:18;4.70;;;1.10;;
20794;SDS011;28087;-33.874;151.240;2022-12-04T00:38:57;5.90;;;1.33;;
20794;SDS011;28087;-33.874;151.240;2022-12-04T00:41:33;7.55;;;1.10;;
20794;SDS011;28087;-33.874;151.240;2022-12-04T00:44:11;8.80;;;1.20;;
20794;SDS011;28087;-33.874;151.240;2022-12-04T00:46:47;7.38;;;1.30;;
20794;SDS011;28087;-33.874;151.240;2022-12-04T00:49:23;8.00;;;1.30;;
20794;SDS011;28087;-33.874;151.240;2022-12-04T00:51:59;6.25;;;1.00;;
20794;SDS011;28087;-33.874;151.240;2022-12-04T00:54:37;6.93;;;1.10;;
20794;SDS011;28087;-33.874;151.240;2022-12-04T00:57:13;5.35;;;1.10;;
20794;SDS011;28087;-33.874;151.240;2022-12-04T00:59:51;6.03;;;1.20;;
20794;SDS011;28087;-33.874;151.240;2022-12-04T01:02:26;6.20;;;1.15;;
20794;SDS011;28087;-33.874;151.240;2022-12-04T01:05:04;6.00;;;1.10;;
20794;SDS011;28087;-33.874;151.240;2022-12-04T01:07:41;6.55;;;1.38;;
20794;SDS011;28087;-33.874;151.240;2022-12-04T01:10:18;7.47;;;1.20;;
20794;SDS011;28087;-33.874;151.240;2022-12-04T01:12:54;5.50;;;1.02;;
20794;SDS011;28087;-33.874;151.240;2022-12-04T01:15:32;5.47;;;1.30;;
20794;SDS011;28087;-33.874;151.240;2022-12-04T01:18:13;8.35;;;1.40;;
20794;SDS011;28087;-33.874;151.240;2022-12-04T01:20:50;8.68;;;1.40;;
20794;SDS011;28087;-33.874;151.240;2022-12-04T01:23:28;6.18;;;1.10;;
20794;SDS011;28087;-33.874;151.240;2022-12-04T01:26:03;8.88;;;1.40;;
20794;SDS011;28087;-33.874;151.240;2022-12-04T01:28:40;10.70;;;1.38;;
20794;SDS011;28087;-33.874;151.240;2022-12-04T01:31:19;9.68;;;1.25;;
20794;SDS011;28087;-33.874;151.240;2022-12-04T01:33:55;9.32;;;1.20;;
20794;SDS011;28087;-33.874;151.240;2022-12-04T01:36:33;6.35;;;1.30;;
20794;SDS011;28087;-33.874;151.240;2022-12-04T01:39:08;6.05;;;1.15;;
20794;SDS011;28087;-33.874;151.240;2022-12-04T01:41:44;7.18;;;1.02;;
20794;SDS011;28087;-33.874;151.240;2022-12-04T01:44:19;6.43;;;1.13;;
20794;SDS011;28087;-33.874;151.240;2022-12-04T01:47:00;5.43;;;1.10;;
20794;SDS011;28087;-33.874;151.240;2022-12-04T01:49:38;5.18;;;1.00;;
20794;SDS011;28087;-33.874;151.240;2022-12-04T01:52:17;6.60;;;1.00;;
20794;SDS011;28087;-33.874;151.240;2022-12-04T01:54:55;4.13;;;0.80;;
20794;SDS011;28087;-33.874;151.240;2022-12-04T01:57:31;4.53;;;0.80;;
20794;SDS011;28087;-33.874;151.240;2022-12-04T02:00:10;4.82;;;0.98;;
20794;SDS011;28087;-33.874;151.240;2022-12-04T02:02:51;4.38;;;0.82;;
20794;SDS011;28087;-33.874;151.240;2022-12-04T02:05:31;5.97;;;1.10;;
20794;SDS011;28087;-33.874;151.240;2022-12-04T02:08:08;5.30;;;1.00;;
20794;SDS011;28087;-33.874;151.240;2022-12-04T02:10:47;6.45;;;1.05;;
20794;SDS011;28087;-33.874;151.240;2022-12-04T02:13:28;5.95;;;0.90;;
20794;SDS011;28087;-33.874;151.240;2022-12-04T02:16:08;5.50;;;1.00;;
20794;SDS011;28087;-33.874;151.240;2022-12-04T02:18:52;5.88;;;1.00;;
20794;SDS011;28087;-33.874;151.240;2022-12-04T02:21:30;2.58;;;0.80;;
20794;SDS011;28087;-33.874;151.240;2022-12-04T02:24:16;5.75;;;0.98;;
20794;SDS011;28087;-33.874;151.240;2022-12-04T02:26:54;4.80;;;0.95;;
20794;SDS011;28087;-33.874;151.240;2022-12-04T02:29:35;6.47;;;1.23;;
20794;SDS011;28087;-33.874;151.240;2022-12-04T02:32:14;7.55;;;1.10;;
20794;SDS011;28087;-33.874;151.240;2022-12-04T02:34:52;4.25;;;1.02;;
20794;SDS011;28087;-33.874;151.240;2022-12-04T02:37:33;6.03;;;1.10;;
20794;SDS011;28087;-33.874;151.240;2022-12-04T02:40:13;6.13;;;1.08;;
20794;SDS011;28087;-33.874;151.240;2022-12-04T02:42:56;4.45;;;0.90;;
20794;SDS011;28087;-33.874;151.240;2022-12-04T02:45:37;7.00;;;0.93;;
20794;SDS011;28087;-33.874;151.240;2022-12-04T02:48:15;6.60;;;0.98;;
20794;SDS011;28087;-33.874;151.240;2022-12-04T02:50:54;4.57;;;1.10;;
20794;SDS011;28087;-33.874;151.240;2022-12-04T02:53:31;4.43;;;0.85;;
20794;SDS011;28087;-33.874;151.240;2022-12-04T02:56:09;5.95;;;0.90;;
20794;SDS011;28087;-33.874;151.240;2022-12-04T02:58:49;6.13;;;1.00;;
20794;SDS011;28087;-33.874;151.240;2022-12-04T03:01:32;5.93;;;1.00;;
20794;SDS011;28087;-33.874;151.240;2022-12-04T03:04:15;4.63;;;0.90;;
20794;SDS011;28087;-33.874;151.240;2022-12-04T03:06:54;4.65;;;1.00;;
20794;SDS011;28087;-33.874;151.240;2022-12-04T03:09:34;6.15;;;1.02;;
20794;SDS011;28087;-33.874;151.240;2022-12-04T03:12:13;4.68;;;0.80;;
20794;SDS011;28087;-33.874;151.240;2022-12-04T03:14:54;4.20;;;0.82;;
20794;SDS011;28087;-33.874;151.240;2022-12-04T03:17:37;5.70;;;1.08;;
20794;SDS011;28087;-33.874;151.240;2022-12-04T03:20:19;5.38;;;1.10;;
20794;SDS011;28087;-33.874;151.240;2022-12-04T03:22:57;3.88;;;0.80;;
20794;SDS011;28087;-33.874;151.240;2022-12-04T03:25:39;5.88;;;0.93;;
20794;SDS011;28087;-33.874;151.240;2022-12-04T03:28:22;6.75;;;0.90;;
20794;SDS011;28087;-33.874;151.240;2022-12-04T03:31:03;3.67;;;0.80;;
20794;SDS011;28087;-33.874;151.240;2022-12-04T03:33:44;4.00;;;1.00;;
20794;SDS011;28087;-33.874;151.240;2022-12-04T03:36:22;4.88;;;1.00;;
20794;SDS011;28087;-33.874;151.240;2022-12-04T03:39:04;4.35;;;0.90;;
20794;SDS011;28087;-33.874;151.240;2022-12-04T03:41:52;2.15;;;0.77;;
20794;SDS011;28087;-33.874;151.240;2022-12-04T03:44:34;4.85;;;0.88;;
20794;SDS011;28087;-33.874;151.240;2022-12-04T03:47:15;3.95;;;0.88;;
20794;SDS011;28087;-33.874;151.240;2022-12-04T03:49:56;5.68;;;0.90;;
20794;SDS011;28087;-33.874;151.240;2022-12-04T03:52:35;4.65;;;1.00;;
20794;SDS011;28087;-33.874;151.240;2022-12-04T03:55:18;6.38;;;1.35;;
20794;SDS011;28087;-33.874;151.240;2022-12-04T03:58:00;4.75;;;0.80;;
20794;SDS011;28087;-33.874;151.240;2022-12-04T04:00:40;6.60;;;1.00;;
20794;SDS011;28087;-33.874;151.240;2022-12-04T04:03:17;6.53;;;0.90;;
20794;SDS011;28087;-33.874;151.240;2022-12-04T04:05:59;6.57;;;0.77;;
20794;SDS011;28087;-33.874;151.240;2022-12-04T04:08:40;5.00;;;0.93;;
20794;SDS011;28087;-33.874;151.240;2022-12-04T04:11:22;7.10;;;0.95;;
20794;SDS011;28087;-33.874;151.240;2022-12-04T04:14:02;5.13;;;0.90;;
20794;SDS011;28087;-33.874;151.240;2022-12-04T04:17:01;5.18;;;0.98;;
20794;SDS011;28087;-33.874;151.240;2022-12-04T04:19:57;5.57;;;0.90;;
20794;SDS011;28087;-33.874;151.240;2022-12-04T04:22:54;3.80;;;0.90;;
20794;SDS011;28087;-33.874;151.240;2022-12-04T04:26:03;4.07;;;0.98;;
20794;SDS011;28087;-33.874;151.240;2022-12-04T04:28:40;5.00;;;0.90;;
20794;SDS011;28087;-33.874;151.240;2022-12-04T04:31:18;4.78;;;0.93;;
20794;SDS011;28087;-33.874;151.240;2022-12-04T04:34:02;6.40;;;0.90;;
20794;SDS011;28087;-33.874;151.240;2022-12-04T04:36:48;6.15;;;0.88;;
20794;SDS011;28087;-33.874;151.240;2022-12-04T04:39:32;3.97;;;0.90;;
20794;SDS011;28087;-33.874;151.240;2022-12-04T04:42:12;5.20;;;1.00;;
20794;SDS011;28087;-33.874;151.240;2022-12-04T04:44:56;5.57;;;1.05;;
20794;SDS011;28087;-33.874;151.240;2022-12-04T04:47:39;6.13;;;0.93;;
20794;SDS011;28087;-33.874;151.240;2022-12-04T04:50:15;5.88;;;1.00;;
20794;SDS011;28087;-33.874;151.240;2022-12-04T04:52:53;6.38;;;1.10;;
20794;SDS011;28087;-33.874;151.240;2022-12-04T04:55:34;4.75;;;1.02;;
20794;SDS011;28087;-33.874;151.240;2022-12-04T04:58:11;5.57;;;0.98;;
20794;SDS011;28087;-33.874;151.240;2022-12-04T05:00:48;6.43;;;1.08;;
20794;SDS011;28087;-33.874;151.240;2022-12-04T05:03:25;4.50;;;0.90;;
20794;SDS011;28087;-33.874;151.240;2022-12-04T05:06:01;6.85;;;1.10;;
20794;SDS011;28087;-33.874;151.240;2022-12-04T05:08:37;6.30;;;1.00;;
20794;SDS011;28087;-33.874;151.240;2022-12-04T05:11:14;6.93;;;1.00;;
20794;SDS011;28087;-33.874;151.240;2022-12-04T05:13:53;7.55;;;1.25;;
20794;SDS011;28087;-33.874;151.240;2022-12-04T05:16:32;7.47;;;1.10;;
20794;SDS011;28087;-33.874;151.240;2022-12-04T05:19:08;5.95;;;0.93;;
20794;SDS011;28087;-33.874;151.240;2022-12-04T05:21:58;7.05;;;1.20;;
20794;SDS011;28087;-33.874;151.240;2022-12-04T05:24:33;5.82;;;1.35;;
20794;SDS011;28087;-33.874;151.240;2022-12-04T05:27:11;8.60;;;1.33;;
20794;SDS011;28087;-33.874;151.240;2022-12-04T05:29:47;9.13;;;1.08;;
20794;SDS011;28087;-33.874;151.240;2022-12-04T05:32:25;8.80;;;1.10;;
20794;SDS011;28087;-33.874;151.240;2022-12-04T05:35:04;7.65;;;1.05;;
20794;SDS011;28087;-33.874;151.240;2022-12-04T05:37:40;4.50;;;0.90;;
20794;SDS011;28087;-33.874;151.240;2022-12-04T05:40:16;5.30;;;1.00;;
20794;SDS011;28087;-33.874;151.240;2022-12-04T05:42:52;5.80;;;1.10;;
20794;SDS011;28087;-33.874;151.240;2022-12-04T05:45:28;5.53;;;1.10;;
20794;SDS011;28087;-33.874;151.240;2022-12-04T05:48:03;8.48;;;1.13;;
20794;SDS011;28087;-33.874;151.240;2022-12-04T05:50:39;6.47;;;1.08;;
20794;SDS011;28087;-33.874;151.240;2022-12-04T05:53:14;7.20;;;1.20;;
20794;SDS011;28087;-33.874;151.240;2022-12-04T05:55:56;4.85;;;0.82;;
20794;SDS011;28087;-33.874;151.240;2022-12-04T05:58:35;4.65;;;0.90;;
20794;SDS011;28087;-33.874;151.240;2022-12-04T06:01:11;4.60;;;0.95;;
20794;SDS011;28087;-33.874;151.240;2022-12-04T06:03:49;3.35;;;0.70;;
20794;SDS011;28087;-33.874;151.240;2022-12-04T06:06:26;7.07;;;1.10;;
20794;SDS011;28087;-33.874;151.240;2022-12-04T06:09:02;5.47;;;0.90;;
20794;SDS011;28087;-33.874;151.240;2022-12-04T06:11:38;5.80;;;1.00;;
20794;SDS011;28087;-33.874;151.240;2022-12-04T06:14:15;7.05;;;0.90;;
20794;SDS011;28087;-33.874;151.240;2022-12-04T06:16:50;8.50;;;0.95;;
20794;SDS011;28087;-33.874;151.240;2022-12-04T06:19:26;6.30;;;0.90;;
20794;SDS011;28087;-33.874;151.240;2022-12-04T06:22:02;7.30;;;1.17;;
20794;SDS011;28087;-33.874;151.240;2022-12-04T06:24:37;6.15;;;0.93;;
20794;SDS011;28087;-33.874;151.240;2022-12-04T06:27:12;6.80;;;1.20;;
20794;SDS011;28087;-33.874;151.240;2022-12-04T06:29:58;7.70;;;1.10;;
20794;SDS011;28087;-33.874;151.240;2022-12-04T06:32:34;7.50;;;1.02;;
20794;SDS011;28087;-33.874;151.240;2022-12-04T06:35:09;10.45;;;1.20;;
20794;SDS011;28087;-33.874;151.240;2022-12-04T06:37:45;5.00;;;0.90;;
20794;SDS011;28087;-33.874;151.240;2022-12-04T06:40:21;8.55;;;1.08;;
20794;SDS011;28087;-33.874;151.240;2022-12-04T06:42:58;6.20;;;1.10;;
20794;SDS011;28087;-33.874;151.240;2022-12-04T06:45:37;4.10;;;0.82;;
20794;SDS011;28087;-33.874;151.240;2022-12-04T06:48:12;7.88;;;1.02;;
20794;SDS011;28087;-33.874;151.240;2022-12-04T06:50:49;7.53;;;1.20;;
20794;SDS011;28087;-33.874;151.240;2022-12-04T06:53:32;6.47;;;1.00;;
20794;SDS011;28087;-33.874;151.240;2022-12-04T06:56:08;11.10;;;1.48;;
20794;SDS011;28087;-33.874;151.240;2022-12-04T06:58:44;10.20;;;1.45;;
20794;SDS011;28087;-33.874;151.240;2022-12-04T07:01:24;9.95;;;1.52;;
20794;SDS011;28087;-33.874;151.240;2022-12-04T07:04:00;9.23;;;0.93;;
20794;SDS011;28087;-33.874;151.240;2022-12-04T07:06:37;8.65;;;1.00;;
20794;SDS011;28087;-33.874;151.240;2022-12-04T07:09:14;9.48;;;1.40;;
20794;SDS011;28087;-33.874;151.240;2022-12-04T07:11:50;7.25;;;1.23;;
20794;SDS011;28087;-33.874;151.240;2022-12-04T07:14:26;7.05;;;1.15;;
20794;SDS011;28087;-33.874;151.240;2022-12-04T07:17:03;6.38;;;1.17;;
20794;SDS011;28087;-33.874;151.240;2022-12-04T07:19:39;6.88;;;1.10;;
20794;SDS011;28087;-33.874;151.240;2022-12-04T07:22:15;5.68;;;1.25;;
20794;SDS011;28087;-33.874;151.240;2022-12-04T07:24:52;4.72;;;1.05;;
20794;SDS011;28087;-33.874;151.240;2022-12-04T07:27:29;6.72;;;1.10;;
20794;SDS011;28087;-33.874;151.240;2022-12-04T07:30:05;6.22;;;1.00;;
20794;SDS011;28087;-33.874;151.240;2022-12-04T07:32:46;10.10;;;1.10;;
20794;SDS011;28087;-33.874;151.240;2022-12-04T07:35:25;9.07;;;1.25;;
20794;SDS011;28087;-33.874;151.240;2022-12-04T07:38:00;7.22;;;1.05;;
20794;SDS011;28087;-33.874;151.240;2022-12-04T07:40:37;5.07;;;1.00;;
20794;SDS011;28087;-33.874;151.240;2022-12-04T07:43:12;4.93;;;0.98;;
20794;SDS011;28087;-33.874;151.240;2022-12-04T07:45:48;6.05;;;1.30;;
20794;SDS011;28087;-33.874;151.240;2022-12-04T07:48:25;7.38;;;1.48;;
20794;SDS011;28087;-33.874;151.240;2022-12-04T07:51:02;7.30;;;2.70;;
20794;SDS011;28087;-33.874;151.240;2022-12-04T07:53:38;11.13;;;3.20;;
20794;SDS011;28087;-33.874;151.240;2022-12-04T07:56:15;19.27;;;11.35;;
20794;SDS011;28087;-33.874;151.240;2022-12-04T07:58:51;10.13;;;3.22;;
20794;SDS011;28087;-33.874;151.240;2022-12-04T08:01:30;12.55;;;5.03;;
20794;SDS011;28087;-33.874;151.240;2022-12-04T08:04:10;19.90;;;13.45;;
20794;SDS011;28087;-33.874;151.240;2022-12-04T08:06:47;14.55;;;5.53;;
20794;SDS011;28087;-33.874;151.240;2022-12-04T08:09:24;19.20;;;8.48;;
20794;SDS011;28087;-33.874;151.240;2022-12-04T08:12:00;12.15;;;6.43;;
20794;SDS011;28087;-33.874;151.240;2022-12-04T08:14:35;17.55;;;11.30;;
20794;SDS011;28087;-33.874;151.240;2022-12-04T08:17:11;17.80;;;9.48;;
20794;SDS011;28087;-33.874;151.240;2022-12-04T08:19:48;13.32;;;5.72;;
20794;SDS011;28087;-33.874;151.240;2022-12-04T08:22:25;9.65;;;1.60;;
20794;SDS011;28087;-33.874;151.240;2022-12-04T08:25:03;8.13;;;1.30;;
20794;SDS011;28087;-33.874;151.240;2022-12-04T08:27:40;8.35;;;1.40;;
20794;SDS011;28087;-33.874;151.240;2022-12-04T08:30:17;6.38;;;1.20;;
20794;SDS011;28087;-33.874;151.240;2022-12-04T08:32:52;8.50;;;1.40;;
20794;SDS011;28087;-33.874;151.240;2022-12-04T08:35:31;5.38;;;0.90;;
20794;SDS011;28087;-33.874;151.240;2022-12-04T08:38:06;7.95;;;0.90;;
20794;SDS011;28087;-33.874;151.240;2022-12-04T08:40:41;8.30;;;1.30;;
20794;SDS011;28087;-33.874;151.240;2022-12-04T08:43:17;6.80;;;1.27;;
20794;SDS011;28087;-33.874;151.240;2022-12-04T08:45:55;7.30;;;1.27;;
20794;SDS011;28087;-33.874;151.240;2022-12-04T08:48:31;8.43;;;1.25;;
20794;SDS011;28087;-33.874;151.240;2022-12-04T08:51:10;6.05;;;1.20;;
20794;SDS011;28087;-33.874;151.240;2022-12-04T08:53:50;8.13;;;1.20;;
20794;SDS011;28087;-33.874;151.240;2022-12-04T08:56:29;8.13;;;1.30;;
20794;SDS011;28087;-33.874;151.240;2022-12-04T08:59:08;7.88;;;1.10;;
20794;SDS011;28087;-33.874;151.240;2022-12-04T09:01:44;10.90;;;1.58;;
20794;SDS011;28087;-33.874;151.240;2022-12-04T09:04:19;5.63;;;1.10;;
20794;SDS011;28087;-33.874;151.240;2022-12-04T09:06:57;6.20;;;1.17;;
20794;SDS011;28087;-33.874;151.240;2022-12-04T09:09:32;7.68;;;1.48;;
20794;SDS011;28087;-33.874;151.240;2022-12-04T09:12:15;9.65;;;1.20;;
20794;SDS011;28087;-33.874;151.240;2022-12-04T09:14:51;5.45;;;1.05;;
20794;SDS011;28087;-33.874;151.240;2022-12-04T09:17:28;8.73;;;0.93;;
20794;SDS011;28087;-33.874;151.240;2022-12-04T09:20:04;5.85;;;1.15;;
20794;SDS011;28087;-33.874;151.240;2022-12-04T09:22:42;7.65;;;0.90;;
20794;SDS011;28087;-33.874;151.240;2022-12-04T09:25:34;7.28;;;1.17;;
20794;SDS011;28087;-33.874;151.240;2022-12-04T09:28:10;10.13;;;1.17;;
20794;SDS011;28087;-33.874;151.240;2022-12-04T09:30:46;9.13;;;1.25;;
20794;SDS011;28087;-33.874;151.240;2022-12-04T09:33:29;8.95;;;1.27;;
20794;SDS011;28087;-33.874;151.240;2022-12-04T09:36:04;6.57;;;1.00;;
20794;SDS011;28087;-33.874;151.240;2022-12-04T09:38:48;8.35;;;1.35;;
20794;SDS011;28087;-33.874;151.240;2022-12-04T09:41:38;9.57;;;1.30;;
20794;SDS011;28087;-33.874;151.240;2022-12-04T09:44:19;8.73;;;1.60;;
20794;SDS011;28087;-33.874;151.240;2022-12-04T09:46:58;8.00;;;1.38;;
20794;SDS011;28087;-33.874;151.240;2022-12-04T09:49:38;9.38;;;1.50;;
20794;SDS011;28087;-33.874;151.240;2022-12-04T09:52:22;7.43;;;1.10;;
20794;SDS011;28087;-33.874;151.240;2022-12-04T09:55:12;7.20;;;1.20;;
20794;SDS011;28087;-33.874;151.240;2022-12-04T09:58:03;8.63;;;1.50;;
20794;SDS011;28087;-33.874;151.240;2022-12-04T10:01:19;7.55;;;1.13;;
20794;SDS011;28087;-33.874;151.240;2022-12-04T10:03:59;7.32;;;1.20;;
20794;SDS011;28087;-33.874;151.240;2022-12-04T10:06:40;7.32;;;1.27;;
20794;SDS011;28087;-33.874;151.240;2022-12-04T10:09:23;8.88;;;1.20;;
20794;SDS011;28087;-33.874;151.240;2022-12-04T10:12:11;8.27;;;1.30;;
20794;SDS011;28087;-33.874;151.240;2022-12-04T10:14:59;7.00;;;1.20;;
20794;SDS011;28087;-33.874;151.240;2022-12-04T10:17:44;6.82;;;1.20;;
20794;SDS011;28087;-33.874;151.240;2022-12-04T10:23:54;10.38;;;1.63;;
20794;SDS011;28087;-33.874;151.240;2022-12-04T10:26:32;8.48;;;1.30;;
20794;SDS011;28087;-33.874;151.240;2022-12-04T10:29:14;8.27;;;1.25;;
20794;SDS011;28087;-33.874;151.240;2022-12-04T10:31:53;8.18;;;1.33;;
20794;SDS011;28087;-33.874;151.240;2022-12-04T10:34:30;9.43;;;1.40;;
20794;SDS011;28087;-33.874;151.240;2022-12-04T10:37:14;6.95;;;1.48;;
20794;SDS011;28087;-33.874;151.240;2022-12-04T10:39:54;8.48;;;1.55;;
20794;SDS011;28087;-33.874;151.240;2022-12-04T10:42:31;11.85;;;1.40;;
20794;SDS011;28087;-33.874;151.240;2022-12-04T10:45:12;7.95;;;1.25;;
20794;SDS011;28087;-33.874;151.240;2022-12-04T10:47:48;6.35;;;1.27;;
20794;SDS011;28087;-33.874;151.240;2022-12-04T10:50:25;9.02;;;1.45;;
20794;SDS011;28087;-33.874;151.240;2022-12-04T10:53:04;7.50;;;1.30;;
20794;SDS011;28087;-33.874;151.240;2022-12-04T10:55:50;6.15;;;1.30;;
20794;SDS011;28087;-33.874;151.240;2022-12-04T10:58:30;6.50;;;1.35;;
20794;SDS011;28087;-33.874;151.240;2022-12-04T11:01:10;9.63;;;1.15;;
20794;SDS011;28087;-33.874;151.240;2022-12-04T11:03:45;8.45;;;1.48;;
20794;SDS011;28087;-33.874;151.240;2022-12-04T11:06:23;9.88;;;1.63;;
20794;SDS011;28087;-33.874;151.240;2022-12-04T11:08:59;10.52;;;1.50;;
20794;SDS011;28087;-33.874;151.240;2022-12-04T11:11:35;10.48;;;1.80;;
20794;SDS011;28087;-33.874;151.240;2022-12-04T11:14:12;8.38;;;1.42;;
20794;SDS011;28087;-33.874;151.240;2022-12-04T11:17:01;13.05;;;1.67;;
20794;SDS011;28087;-33.874;151.240;2022-12-04T11:19:39;7.15;;;1.40;;
20794;SDS011;28087;-33.874;151.240;2022-12-04T11:22:15;11.15;;;1.60;;
20794;SDS011;28087;-33.874;151.240;2022-12-04T11:24:54;10.30;;;1.63;;
20794;SDS011;28087;-33.874;151.240;2022-12-04T11:27:33;7.63;;;1.50;;
20794;SDS011;28087;-33.874;151.240;2022-12-04T11:30:12;8.10;;;1.55;;
20794;SDS011;28087;-33.874;151.240;2022-12-04T11:32:50;9.75;;;1.85;;
20794;SDS011;28087;-33.874;151.240;2022-12-04T11:35:26;10.70;;;1.98;;
20794;SDS011;28087;-33.874;151.240;2022-12-04T11:38:04;10.25;;;1.90;;
20794;SDS011;28087;-33.874;151.240;2022-12-04T11:40:45;13.23;;;2.03;;
20794;SDS011;28087;-33.874;151.240;2022-12-04T11:43:21;16.17;;;2.05;;
20794;SDS011;28087;-33.874;151.240;2022-12-04T11:46:00;14.25;;;2.33;;
20794;SDS011;28087;-33.874;151.240;2022-12-04T11:48:44;12.65;;;2.15;;
20794;SDS011;28087;-33.874;151.240;2022-12-04T11:51:22;11.27;;;1.90;;
20794;SDS011;28087;-33.874;151.240;2022-12-04T11:54:05;14.88;;;2.00;;
20794;SDS011;28087;-33.874;151.240;2022-12-04T11:56:41;12.55;;;2.05;;
20794;SDS011;28087;-33.874;151.240;2022-12-04T11:59:24;12.88;;;1.92;;
20794;SDS011;28087;-33.874;151.240;2022-12-04T12:02:26;12.38;;;2.00;;
20794;SDS011;28087;-33.874;151.240;2022-12-04T12:05:20;10.70;;;2.13;;
20794;SDS011;28087;-33.874;151.240;2022-12-04T12:08:13;14.18;;;2.03;;
20794;SDS011;28087;-33.874;151.240;2022-12-04T12:11:02;12.98;;;2.10;;
20794;SDS011;28087;-33.874;151.240;2022-12-04T12:13:46;15.45;;;2.20;;
20794;SDS011;28087;-33.874;151.240;2022-12-04T12:16:32;13.18;;;1.90;;
20794;SDS011;28087;-33.874;151.240;2022-12-04T12:19:27;12.63;;;2.20;;
20794;SDS011;28087;-33.874;151.240;2022-12-04T12:22:27;10.98;;;2.20;;
20794;SDS011;28087;-33.874;151.240;2022-12-04T12:25:25;16.50;;;2.80;;
20794;SDS011;28087;-33.874;151.240;2022-12-04T12:28:10;12.63;;;2.10;;
20794;SDS011;28087;-33.874;151.240;2022-12-04T12:31:00;13.32;;;2.03;;
20794;SDS011;28087;-33.874;151.240;2022-12-04T12:33:50;12.88;;;2.30;;
20794;SDS011;28087;-33.874;151.240;2022-12-04T12:36:30;13.02;;;2.55;;
20794;SDS011;28087;-33.874;151.240;2022-12-04T12:39:15;17.13;;;2.58;;
20794;SDS011;28087;-33.874;151.240;2022-12-04T12:41:56;13.93;;;2.50;;
20794;SDS011;28087;-33.874;151.240;2022-12-04T12:44:38;14.88;;;2.47;;
20794;SDS011;28087;-33.874;151.240;2022-12-04T12:47:21;15.48;;;2.60;;
20794;SDS011;28087;-33.874;151.240;2022-12-04T12:50:00;14.95;;;2.55;;
20794;SDS011;28087;-33.874;151.240;2022-12-04T12:52:40;18.30;;;2.75;;
20794;SDS011;28087;-33.874;151.240;2022-12-04T12:55:24;11.05;;;2.00;;
20794;SDS011;28087;-33.874;151.240;2022-12-04T12:58:04;14.85;;;2.20;;
20794;SDS011;28087;-33.874;151.240;2022-12-04T13:00:46;17.58;;;2.30;;
20794;SDS011;28087;-33.874;151.240;2022-12-04T13:03:31;16.38;;;2.63;;
20794;SDS011;28087;-33.874;151.240;2022-12-04T13:06:15;10.38;;;2.05;;
20794;SDS011;28087;-33.874;151.240;2022-12-04T13:08:55;10.15;;;1.95;;
20794;SDS011;28087;-33.874;151.240;2022-12-04T13:11:41;13.32;;;2.00;;
20794;SDS011;28087;-33.874;151.240;2022-12-04T13:14:19;12.30;;;2.05;;
20794;SDS011;28087;-33.874;151.240;2022-12-04T13:16:59;11.00;;;1.90;;
20794;SDS011;28087;-33.874;151.240;2022-12-04T13:19:43;13.77;;;2.20;;
20794;SDS011;28087;-33.874;151.240;2022-12-04T13:22:25;14.15;;;2.15;;
20794;SDS011;28087;-33.874;151.240;2022-12-04T13:25:17;10.75;;;1.92;;
20794;SDS011;28087;-33.874;151.240;2022-12-04T13:28:11;13.95;;;2.20;;
20794;SDS011;28087;-33.874;151.240;2022-12-04T13:30:54;12.48;;;2.03;;
20794;SDS011;28087;-33.874;151.240;2022-12-04T13:33:39;14.00;;;2.13;;
20794;SDS011;28087;-33.874;151.240;2022-12-04T13:36:41;16.42;;;2.30;;
20794;SDS011;28087;-33.874;151.240;2022-12-04T13:39:53;12.43;;;2.25;;
20794;SDS011;28087;-33.874;151.240;2022-12-04T13:46:22;12.27;;;1.95;;
20794;SDS011;28087;-33.874;151.240;2022-12-04T13:49:07;14.20;;;2.33;;
20794;SDS011;28087;-33.874;151.240;2022-12-04T13:51:56;14.95;;;2.30;;
20794;SDS011;28087;-33.874;151.240;2022-12-04T13:54:34;13.63;;;2.05;;
20794;SDS011;28087;-33.874;151.240;2022-12-04T13:57:18;10.55;;;1.83;;
20794;SDS011;28087;-33.874;151.240;2022-12-04T14:00:05;9.20;;;1.80;;
20794;SDS011;28087;-33.874;151.240;2022-12-04T14:02:57;10.90;;;2.20;;
20794;SDS011;28087;-33.874;151.240;2022-12-04T14:05:39;10.88;;;2.10;;
20794;SDS011;28087;-33.874;151.240;2022-12-04T14:08:20;11.88;;;1.85;;
20794;SDS011;28087;-33.874;151.240;2022-12-04T14:11:00;14.07;;;2.13;;
20794;SDS011;28087;-33.874;151.240;2022-12-04T14:13:42;11.02;;;1.83;;
20794;SDS011;28087;-33.874;151.240;2022-12-04T14:16:23;9.70;;;1.73;;
20794;SDS011;28087;-33.874;151.240;2022-12-04T14:19:04;8.38;;;2.08;;
20794;SDS011;28087;-33.874;151.240;2022-12-04T14:21:42;11.10;;;1.90;;
20794;SDS011;28087;-33.874;151.240;2022-12-04T14:24:27;10.52;;;1.85;;
20794;SDS011;28087;-33.874;151.240;2022-12-04T14:30:10;14.52;;;2.00;;
20794;SDS011;28087;-33.874;151.240;2022-12-04T14:32:54;11.65;;;2.03;;
20794;SDS011;28087;-33.874;151.240;2022-12-04T14:35:35;10.30;;;1.67;;
20794;SDS011;28087;-33.874;151.240;2022-12-04T14:38:20;8.45;;;1.58;;
20794;SDS011;28087;-33.874;151.240;2022-12-04T14:40:57;11.35;;;1.90;;
20794;SDS011;28087;-33.874;151.240;2022-12-04T14:43:36;12.07;;;2.20;;
20794;SDS011;28087;-33.874;151.240;2022-12-04T14:46:14;10.43;;;1.67;;
20794;SDS011;28087;-33.874;151.240;2022-12-04T14:48:59;14.73;;;1.90;;
20794;SDS011;28087;-33.874;151.240;2022-12-04T14:51:52;12.50;;;2.03;;
20794;SDS011;28087;-33.874;151.240;2022-12-04T14:54:37;11.90;;;1.80;;
20794;SDS011;28087;-33.874;151.240;2022-12-04T14:57:26;8.73;;;1.60;;
20794;SDS011;28087;-33.874;151.240;2022-12-04T15:00:14;10.60;;;1.92;;
20794;SDS011;28087;-33.874;151.240;2022-12-04T15:02:53;8.93;;;1.70;;
20794;SDS011;28087;-33.874;151.240;2022-12-04T15:05:35;12.32;;;1.80;;
20794;SDS011;28087;-33.874;151.240;2022-12-04T15:08:11;10.73;;;2.00;;
20794;SDS011;28087;-33.874;151.240;2022-12-04T15:10:50;10.02;;;1.80;;
20794;SDS011;28087;-33.874;151.240;2022-12-04T15:13:41;8.30;;;2.03;;
20794;SDS011;28087;-33.874;151.240;2022-12-04T15:16:19;11.50;;;2.00;;
20794;SDS011;28087;-33.874;151.240;2022-12-04T15:18:56;11.93;;;2.00;;
20794;SDS011;28087;-33.874;151.240;2022-12-04T15:21:36;9.07;;;1.80;;
20794;SDS011;28087;-33.874;151.240;2022-12-04T15:24:14;9.15;;;1.90;;
20794;SDS011;28087;-33.874;151.240;2022-12-04T15:26:54;7.45;;;1.52;;
20794;SDS011;28087;-33.874;151.240;2022-12-04T15:29:30;17.42;;;2.00;;
20794;SDS011;28087;-33.874;151.240;2022-12-04T15:32:12;9.80;;;1.90;;